createdAt,value
2019-05-22T00:00:06.958Z,11.30
2019-05-22T00:02:40.714Z,11.70
2019-05-22T00:05:24.064Z,11.90
2019-05-22T00:07:52.429Z,12.00
2019-05-22T00:10:25.394Z,11.80
2019-05-22T00:12:54.164Z,11.70
2019-05-22T00:15:23.754Z,11.70
2019-05-22T00:17:53.599Z,11.90
2019-05-22T00:20:22.795Z,12.10
2019-05-22T00:22:52.745Z,12.00
2019-05-22T00:25:20.667Z,12.00
2019-05-22T00:27:49.708Z,12.10
2019-05-22T00:30:17.690Z,12.20
2019-05-22T00:32:47.531Z,12.40
2019-05-22T00:35:16.286Z,12.60
2019-05-22T00:37:45.306Z,12.60
2019-05-22T00:40:14.856Z,12.50
2019-05-22T00:42:44.320Z,12.30
2019-05-22T00:45:14.241Z,12.30
2019-05-22T00:47:42.977Z,12.40
2019-05-22T00:50:15.727Z,12.40
2019-05-22T00:52:48.969Z,12.40
2019-05-22T00:55:36.201Z,12.40
2019-05-22T00:58:16.491Z,12.40
2019-05-22T01:01:00.020Z,12.30
2019-05-22T01:03:29.185Z,12.40
2019-05-22T01:05:58.163Z,12.40
2019-05-22T01:08:27.487Z,12.50
2019-05-22T01:10:56.977Z,12.40
2019-05-22T01:13:30.231Z,12.40
2019-05-22T01:15:59.285Z,12.40
2019-05-22T01:18:28.146Z,12.50
2019-05-22T01:20:58.410Z,12.40
2019-05-22T01:23:29.460Z,12.60
2019-05-22T01:25:58.730Z,12.70
2019-05-22T01:28:27.307Z,12.70
2019-05-22T01:31:02.610Z,12.70
2019-05-22T01:33:32.494Z,12.70
2019-05-22T01:36:23.036Z,12.70
2019-05-22T01:38:52.647Z,12.70
2019-05-22T01:41:25.945Z,12.60
2019-05-22T01:43:55.697Z,12.60
2019-05-22T01:46:24.858Z,12.70
2019-05-22T01:48:55.868Z,12.70
2019-05-22T01:51:24.576Z,12.70
2019-05-22T01:53:53.186Z,12.70
2019-05-22T01:56:20.640Z,12.60
2019-05-22T01:58:49.934Z,12.70
2019-05-22T02:01:19.159Z,12.90
2019-05-22T02:03:46.968Z,13.10
2019-05-22T02:06:16.398Z,13.40
2019-05-22T02:08:51.169Z,13.30
2019-05-22T02:11:21.842Z,13.10
2019-05-22T02:13:56.196Z,13.10
2019-05-22T02:16:23.794Z,13.20
2019-05-22T02:18:51.828Z,13.20
2019-05-22T02:21:19.872Z,13.10
2019-05-22T02:23:48.101Z,12.90
2019-05-22T02:26:16.560Z,12.90
2019-05-22T02:28:44.440Z,13.00
2019-05-22T02:31:14.690Z,12.90
2019-05-22T02:34:01.011Z,12.90
2019-05-22T02:36:28.532Z,12.90
2019-05-22T02:38:56.713Z,12.80
2019-05-22T02:41:26.179Z,12.80
2019-05-22T02:43:55.304Z,12.80
2019-05-22T02:46:22.721Z,12.70
2019-05-22T02:48:51.586Z,12.70
2019-05-22T02:51:19.536Z,12.70
2019-05-22T02:53:49.333Z,12.70
2019-05-22T02:56:17.523Z,12.90
2019-05-22T02:58:45.483Z,12.90
2019-05-22T03:01:13.457Z,12.90
2019-05-22T03:03:40.810Z,12.90
2019-05-22T03:06:11.701Z,12.90
2019-05-22T03:09:07.435Z,12.90
2019-05-22T03:11:38.990Z,13.00
2019-05-22T03:14:08.683Z,13.30
2019-05-22T03:16:50.560Z,13.50
2019-05-22T03:19:25.894Z,13.50
2019-05-22T03:21:54.648Z,13.70
2019-05-22T03:24:22.497Z,13.70
2019-05-22T03:26:52.762Z,13.60
2019-05-22T03:29:26.804Z,13.50
2019-05-22T03:31:54.397Z,13.50
2019-05-22T03:34:21.755Z,13.50
2019-05-22T03:36:49.683Z,13.60
2019-05-22T03:39:18.728Z,13.60
2019-05-22T03:41:46.634Z,13.50
2019-05-22T03:44:15.304Z,13.30
2019-05-22T03:46:45.880Z,13.20
2019-05-22T03:49:28.886Z,13.30
2019-05-22T03:51:50.123Z,13.50
2019-05-22T03:54:19.405Z,13.80
2019-05-22T03:56:47.187Z,13.80
2019-05-22T03:59:14.643Z,13.80
2019-05-22T04:01:42.985Z,14.00
2019-05-22T04:04:11.052Z,13.90
2019-05-22T04:06:40.766Z,13.80
2019-05-22T04:09:19.336Z,13.70
2019-05-22T04:11:46.852Z,13.70
2019-05-22T04:14:14.346Z,13.70
2019-05-22T04:16:43.714Z,13.80
2019-05-22T04:19:12.509Z,14.00
2019-05-22T04:21:39.835Z,14.20
2019-05-22T04:24:07.510Z,14.40
2019-05-22T04:26:35.265Z,14.50
2019-05-22T04:29:05.011Z,14.60
2019-05-22T04:31:48.955Z,14.60
2019-05-22T04:34:17.181Z,14.60
2019-05-22T04:36:46.277Z,14.60
2019-05-22T04:39:19.974Z,14.60
2019-05-22T04:41:47.283Z,14.40
2019-05-22T04:44:14.760Z,14.50
2019-05-22T04:46:44.978Z,14.70
2019-05-22T04:49:12.725Z,14.70
2019-05-22T04:51:40.271Z,14.70
2019-05-22T04:54:07.648Z,14.80
2019-05-22T04:56:35.407Z,14.50
2019-05-22T04:59:03.711Z,14.60
2019-05-22T05:01:31.980Z,14.80
2019-05-22T05:03:59.870Z,14.90
2019-05-22T05:06:30.719Z,15.00
2019-05-22T05:08:58.477Z,15.10
2019-05-22T05:11:26.042Z,15.30
2019-05-22T05:13:54.162Z,15.50
2019-05-22T05:16:21.543Z,15.50
2019-05-22T05:18:49.006Z,15.20
2019-05-22T05:21:16.587Z,14.90
2019-05-22T05:23:43.951Z,14.80
2019-05-22T05:26:11.512Z,15.00
2019-05-22T05:28:39.069Z,15.20
2019-05-22T05:31:06.416Z,15.40
2019-05-22T05:33:43.729Z,15.60
2019-05-22T05:36:12.247Z,15.60
2019-05-22T05:38:39.800Z,15.80
2019-05-22T05:41:07.266Z,16.00
2019-05-22T05:43:34.872Z,15.90
2019-05-22T05:46:03.094Z,16.00
2019-05-22T05:48:32.492Z,16.00
2019-05-22T05:51:32.655Z,16.00
2019-05-22T05:54:06.733Z,16.10
2019-05-22T05:56:35.095Z,16.10
2019-05-22T05:59:04.946Z,16.30
2019-05-22T06:01:35.943Z,16.60
2019-05-22T06:04:03.907Z,16.60
2019-05-22T06:07:13.331Z,16.90
2019-05-22T06:09:41.501Z,17.00
2019-05-22T06:12:11.381Z,17.50
2019-05-22T06:14:41.345Z,17.40
2019-05-22T06:17:51.131Z,17.20
2019-05-22T06:20:19.775Z,17.30
2019-05-22T06:23:40.255Z,17.60
2019-05-22T06:26:09.511Z,17.80
2019-05-22T06:28:37.733Z,17.90
2019-05-22T06:31:09.966Z,17.90
2019-05-22T06:33:38.169Z,17.80
2019-05-22T06:36:08.367Z,17.80
2019-05-22T06:38:56.875Z,18.00
2019-05-22T06:41:28.315Z,18.00
2019-05-22T06:44:58.719Z,18.20
2019-05-22T06:47:28.257Z,18.40
2019-05-22T06:49:56.850Z,18.50
2019-05-22T06:52:24.387Z,18.60
2019-05-22T06:54:52.707Z,18.90
2019-05-22T06:57:33.471Z,19.10
2019-05-22T07:00:13.977Z,19.10
2019-05-22T07:02:38.245Z,18.90
2019-05-22T07:05:06.515Z,18.60
2019-05-22T07:07:33.960Z,17.90
2019-05-22T07:10:01.450Z,17.60
2019-05-22T07:12:30.782Z,17.50
2019-05-22T07:15:49.614Z,17.70
2019-05-22T07:18:20.100Z,17.70
2019-05-22T07:20:49.154Z,18.10
2019-05-22T07:23:22.148Z,18.40
2019-05-22T07:25:51.033Z,18.70
2019-05-22T07:28:19.730Z,18.90
2019-05-22T07:30:48.227Z,18.90
2019-05-22T07:33:16.424Z,19.10
2019-05-22T07:35:56.747Z,19.10
2019-05-22T07:38:15.057Z,19.40
2019-05-22T07:40:43.285Z,19.10
2019-05-22T07:43:10.670Z,19.00
2019-05-22T07:45:38.063Z,19.30
2019-05-22T07:48:07.277Z,19.60
2019-05-22T07:50:39.947Z,19.80
2019-05-22T07:53:07.902Z,19.60
2019-05-22T07:55:35.228Z,19.60
2019-05-22T07:58:14.081Z,19.90
2019-05-22T08:00:47.150Z,20.20
2019-05-22T08:03:15.389Z,20.50
2019-05-22T08:05:47.963Z,20.50
2019-05-22T08:08:18.704Z,20.50
2019-05-22T08:10:45.882Z,20.20
2019-05-22T08:13:14.099Z,20.50
2019-05-22T08:15:41.798Z,20.80
2019-05-22T08:18:09.609Z,21.00
2019-05-22T08:20:38.117Z,20.90
2019-05-22T08:23:07.169Z,20.60
2019-05-22T08:25:34.745Z,20.50
2019-05-22T08:28:02.960Z,20.40
2019-05-22T08:30:30.410Z,20.60
2019-05-22T08:33:01.974Z,20.70
2019-05-22T08:35:30.432Z,20.90
2019-05-22T08:37:58.758Z,21.20
2019-05-22T08:40:26.524Z,21.10
2019-05-22T08:42:54.961Z,21.00
2019-05-22T08:45:22.951Z,21.10
2019-05-22T08:47:50.445Z,21.40
2019-05-22T08:50:20.424Z,21.40
2019-05-22T08:52:48.534Z,21.20
2019-05-22T08:55:16.345Z,21.10
2019-05-22T08:57:45.758Z,21.30
2019-05-22T09:00:15.977Z,21.50
2019-05-22T09:02:44.154Z,21.70
2019-05-22T09:05:12.577Z,21.80
2019-05-22T09:07:41.601Z,21.60
2019-05-22T09:10:10.684Z,21.90
2019-05-22T09:12:38.072Z,22.00
2019-05-22T09:15:06.355Z,22.30
2019-05-22T09:17:33.714Z,22.10
2019-05-22T09:20:01.763Z,22.00
2019-05-22T09:22:39.982Z,22.20
2019-05-22T09:25:00.199Z,22.40
2019-05-22T09:27:27.777Z,22.20
2019-05-22T09:29:55.169Z,22.10
2019-05-22T09:32:22.635Z,22.20
2019-05-22T09:34:50.284Z,22.00
2019-05-22T09:37:18.080Z,21.90
2019-05-22T09:39:45.421Z,22.20
2019-05-22T09:42:13.499Z,22.40
2019-05-22T09:44:40.885Z,22.60
2019-05-22T09:47:08.878Z,22.70
2019-05-22T09:49:37.175Z,22.80
2019-05-22T09:52:09.136Z,22.70
2019-05-22T09:54:37.194Z,22.80
2019-05-22T09:57:05.032Z,23.00
2019-05-22T09:59:32.637Z,23.10
2019-05-22T10:02:00.124Z,23.30
2019-05-22T10:04:28.241Z,23.30
2019-05-22T10:06:55.856Z,23.30
2019-05-22T10:09:24.736Z,23.40
2019-05-22T10:11:53.036Z,23.40
2019-05-22T10:14:21.362Z,23.60
2019-05-22T10:16:48.822Z,23.70
2019-05-22T10:19:16.614Z,23.80
2019-05-22T10:21:44.564Z,23.90
2019-05-22T10:24:12.586Z,24.10
2019-05-22T10:26:40.455Z,24.40
2019-05-22T10:29:08.417Z,24.50
2019-05-22T10:31:36.016Z,24.50
2019-05-22T10:34:03.497Z,24.50
2019-05-22T10:36:31.671Z,24.50
2019-05-22T10:38:59.091Z,24.50
2019-05-22T10:41:27.041Z,24.60
2019-05-22T10:43:54.419Z,24.60
2019-05-22T10:46:21.921Z,24.90
2019-05-22T10:48:49.412Z,25.00
2019-05-22T10:51:16.882Z,25.20
2019-05-22T10:53:44.269Z,25.00
2019-05-22T10:56:11.799Z,24.70
2019-05-22T10:58:39.283Z,24.70
2019-05-22T11:01:08.049Z,24.80
2019-05-22T11:03:36.003Z,24.70
2019-05-22T11:06:07.669Z,24.80
2019-05-22T11:08:34.452Z,25.00
2019-05-22T11:11:02.246Z,25.20
2019-05-22T11:13:29.724Z,25.10
2019-05-22T11:15:58.185Z,24.80
2019-05-22T11:18:25.837Z,24.80
2019-05-22T11:20:53.191Z,24.80
2019-05-22T11:23:20.789Z,24.70
2019-05-22T11:25:48.544Z,24.50
2019-05-22T11:28:16.009Z,24.20
2019-05-22T11:30:43.458Z,24.00
2019-05-22T11:33:11.057Z,24.10
2019-05-22T11:35:38.503Z,24.30
2019-05-22T11:38:06.631Z,24.60
2019-05-22T11:40:34.156Z,24.80
2019-05-22T11:43:02.487Z,24.80
2019-05-22T11:45:30.197Z,24.60
2019-05-22T11:47:57.559Z,24.30
2019-05-22T11:50:27.232Z,24.40
2019-05-22T11:52:54.699Z,24.70
2019-05-22T11:55:42.154Z,24.80
2019-05-22T11:57:53.108Z,24.80
2019-05-22T12:00:22.553Z,24.80
2019-05-22T12:02:50.992Z,24.80
2019-05-22T12:05:19.365Z,24.70
2019-05-22T12:07:47.444Z,24.80
2019-05-22T12:10:15.433Z,24.70
2019-05-22T12:12:43.857Z,24.60
2019-05-22T12:15:12.367Z,24.40
2019-05-22T12:17:40.061Z,24.30
2019-05-22T12:20:09.688Z,24.40
2019-05-22T12:22:38.012Z,24.50
2019-05-22T12:25:05.892Z,24.60
2019-05-22T12:27:33.571Z,24.80
2019-05-22T12:30:01.566Z,24.90
2019-05-22T12:32:29.595Z,25.00
2019-05-22T12:34:57.175Z,25.20
2019-05-22T12:37:24.607Z,25.20
2019-05-22T12:39:51.944Z,25.20
2019-05-22T12:42:20.126Z,25.20
2019-05-22T12:44:48.022Z,25.30
2019-05-22T12:47:15.969Z,25.30
2019-05-22T12:49:43.496Z,25.10
2019-05-22T12:52:10.890Z,25.10
2019-05-22T12:54:47.353Z,25.10
2019-05-22T12:57:09.844Z,24.70
2019-05-22T12:59:37.224Z,23.90
2019-05-22T13:02:06.693Z,23.40
2019-05-22T13:04:34.340Z,22.80
2019-05-22T13:07:02.703Z,22.50
2019-05-22T13:09:30.839Z,22.20
2019-05-22T13:11:59.309Z,21.70
2019-05-22T13:14:26.708Z,21.00
2019-05-22T13:16:55.014Z,20.40
2019-05-22T13:19:22.950Z,20.00
2019-05-22T13:21:53.119Z,19.70
2019-05-22T13:24:22.410Z,19.60
2019-05-22T13:26:50.374Z,19.50
2019-05-22T13:29:18.030Z,19.50
2019-05-22T13:31:47.824Z,19.50
2019-05-22T13:34:16.183Z,19.50
2019-05-22T13:36:45.081Z,19.60
2019-05-22T13:39:14.333Z,19.70
2019-05-22T13:41:42.257Z,19.80
2019-05-22T13:44:09.990Z,19.80
2019-05-22T13:46:37.657Z,20.00
2019-05-22T13:49:06.212Z,20.10
2019-05-22T13:51:33.899Z,20.20
2019-05-22T13:54:01.380Z,20.40
2019-05-22T13:56:28.809Z,20.60
2019-05-22T13:58:56.775Z,20.70
2019-05-22T14:01:24.571Z,20.80
2019-05-22T14:03:53.090Z,20.70
2019-05-22T14:06:20.428Z,20.70
2019-05-22T14:08:48.019Z,20.50
2019-05-22T14:11:16.511Z,20.30
2019-05-22T14:13:44.179Z,20.30
2019-05-22T14:16:14.631Z,20.30
2019-05-22T14:18:41.984Z,20.20
2019-05-22T14:21:09.442Z,20.10
2019-05-22T14:23:36.955Z,20.20
2019-05-22T14:26:04.380Z,20.20
2019-05-22T14:28:31.889Z,20.10
2019-05-22T14:30:59.412Z,20.10
2019-05-22T14:33:28.293Z,20.10
2019-05-22T14:35:56.651Z,20.00
2019-05-22T14:38:25.189Z,20.00
2019-05-22T14:40:52.954Z,19.90
2019-05-22T14:43:20.269Z,19.90
2019-05-22T14:45:47.840Z,19.70
2019-05-22T14:48:15.694Z,19.70
2019-05-22T14:50:43.989Z,19.50
2019-05-22T14:53:12.097Z,19.40
2019-05-22T14:55:40.375Z,19.20
2019-05-22T14:58:08.369Z,19.10
2019-05-22T15:00:37.641Z,19.10
2019-05-22T15:03:05.916Z,19.00
2019-05-22T15:05:33.352Z,19.00
2019-05-22T15:08:00.742Z,19.00
2019-05-22T15:10:28.915Z,18.90
2019-05-22T15:12:56.396Z,18.80
2019-05-22T15:15:23.938Z,18.80
2019-05-22T15:17:52.507Z,18.70
2019-05-22T15:20:26.932Z,18.60
2019-05-22T15:22:56.100Z,18.60
2019-05-22T15:25:25.422Z,18.60
2019-05-22T15:27:53.465Z,18.50
2019-05-22T15:30:20.949Z,18.40
2019-05-22T15:32:48.316Z,18.30
2019-05-22T15:35:15.788Z,18.00
2019-05-22T15:37:44.308Z,17.90
2019-05-22T15:40:13.205Z,18.00
2019-05-22T15:42:44.104Z,17.90
2019-05-22T15:45:14.739Z,17.90
2019-05-22T15:47:54.785Z,17.80
2019-05-22T15:50:18.961Z,17.90
2019-05-22T15:52:53.812Z,17.80
2019-05-22T15:55:24.214Z,17.90
2019-05-22T15:57:51.599Z,17.90
2019-05-22T16:00:23.872Z,17.70
2019-05-22T16:02:51.232Z,17.50
2019-05-22T16:05:20.836Z,17.40
2019-05-22T16:07:49.362Z,17.40
2019-05-22T16:10:21.093Z,17.50
2019-05-22T16:12:48.675Z,17.50
2019-05-22T16:15:19.105Z,17.30
2019-05-22T16:17:48.697Z,17.20
2019-05-22T16:20:18.997Z,17.00
2019-05-22T16:22:46.742Z,17.00
2019-05-22T16:25:15.059Z,16.80
2019-05-22T16:27:43.458Z,16.70
2019-05-22T16:30:11.466Z,16.70
2019-05-22T16:32:40.244Z,16.70
2019-05-22T16:35:09.003Z,16.60
2019-05-22T16:37:37.147Z,16.50
2019-05-22T16:40:05.240Z,16.40
2019-05-22T16:42:33.395Z,16.30
2019-05-22T16:45:01.226Z,16.10
2019-05-22T16:47:28.947Z,16.00
2019-05-22T16:49:57.878Z,16.00
2019-05-22T16:52:27.766Z,16.00
2019-05-22T16:54:55.806Z,15.90
2019-05-22T16:57:24.169Z,15.80
2019-05-22T16:59:52.100Z,15.50
2019-05-22T17:02:19.949Z,15.50
2019-05-22T17:04:48.150Z,15.40
2019-05-22T17:07:16.415Z,15.30
2019-05-22T17:09:45.677Z,15.10
2019-05-22T17:12:16.372Z,15.10
2019-05-22T17:14:45.232Z,15.00
2019-05-22T17:17:16.009Z,15.00
2019-05-22T17:19:43.484Z,14.90
2019-05-22T17:22:12.237Z,14.90
2019-05-22T17:24:39.591Z,14.80
2019-05-22T17:27:09.675Z,14.70
2019-05-22T17:29:37.579Z,14.60
2019-05-22T17:32:05.717Z,14.60
2019-05-22T17:34:36.611Z,14.70
2019-05-22T17:37:08.897Z,14.60
2019-05-22T17:39:39.486Z,14.60
2019-05-22T17:42:09.184Z,14.60
2019-05-22T17:44:38.746Z,14.60
2019-05-22T17:47:07.998Z,14.50
2019-05-22T17:49:35.464Z,14.50
2019-05-22T17:52:04.662Z,14.30
2019-05-22T17:54:32.772Z,14.20
2019-05-22T17:57:00.647Z,14.10
2019-05-22T17:59:28.127Z,13.90
2019-05-22T18:01:55.569Z,13.80
2019-05-22T18:04:23.327Z,13.70
2019-05-22T18:06:51.029Z,13.60
2019-05-22T18:09:18.761Z,13.60
2019-05-22T18:11:46.255Z,13.60
2019-05-22T18:14:14.499Z,13.50
2019-05-22T18:16:42.255Z,13.50
2019-05-22T18:19:10.896Z,13.40
2019-05-22T18:21:39.476Z,13.40
2019-05-22T18:24:08.218Z,13.50
2019-05-22T18:26:35.776Z,13.40
2019-05-22T18:29:03.678Z,13.30
2019-05-22T18:31:31.169Z,13.20
2019-05-22T18:33:58.552Z,13.20
2019-05-22T18:36:26.051Z,13.20
2019-05-22T18:38:53.487Z,13.10
2019-05-22T18:41:20.969Z,13.10
2019-05-22T18:43:48.717Z,13.00
2019-05-22T18:46:16.267Z,13.00
2019-05-22T18:48:43.639Z,13.00
2019-05-22T18:51:11.080Z,13.00
2019-05-22T18:53:39.354Z,12.90
2019-05-22T18:56:10.647Z,12.80
2019-05-22T18:58:37.075Z,12.70
2019-05-22T19:01:04.914Z,12.70
2019-05-22T19:03:32.290Z,12.60
2019-05-22T19:06:01.566Z,12.60
2019-05-22T19:08:29.063Z,12.60
2019-05-22T19:10:56.533Z,12.60
2019-05-22T19:13:23.981Z,12.50
2019-05-22T19:15:51.327Z,12.50
2019-05-22T19:18:18.809Z,12.40
2019-05-22T19:20:46.298Z,12.30
2019-05-22T19:23:13.692Z,12.30
2019-05-22T19:25:41.067Z,12.20
2019-05-22T19:28:08.637Z,12.20
2019-05-22T19:30:36.016Z,12.20
2019-05-22T19:33:04.200Z,12.20
2019-05-22T19:35:32.053Z,12.10
2019-05-22T19:38:00.182Z,12.10
2019-05-22T19:40:28.357Z,12.10
2019-05-22T19:42:56.187Z,12.10
2019-05-22T19:45:23.564Z,12.00
2019-05-22T19:47:55.217Z,12.00
2019-05-22T19:50:24.687Z,12.00
2019-05-22T19:52:52.696Z,11.90
2019-05-22T19:55:20.865Z,11.90
2019-05-22T19:57:49.003Z,11.80
2019-05-22T20:00:17.061Z,11.80
2019-05-22T20:02:45.132Z,11.80
2019-05-22T20:05:12.587Z,11.70
2019-05-22T20:07:40.464Z,11.60
2019-05-22T20:10:10.415Z,11.60
2019-05-22T20:12:38.313Z,11.50
2019-05-22T20:15:07.820Z,11.50
2019-05-22T20:17:35.253Z,11.50
2019-05-22T20:20:04.088Z,11.40
2019-05-22T20:22:32.187Z,11.40
2019-05-22T20:24:59.552Z,11.30
2019-05-22T20:27:27.021Z,11.30
2019-05-22T20:29:54.550Z,11.30
2019-05-22T20:32:22.222Z,11.30
2019-05-22T20:34:49.584Z,11.30
2019-05-22T20:37:18.108Z,11.30
2019-05-22T20:39:46.080Z,11.30
2019-05-22T20:42:13.427Z,11.30
2019-05-22T20:44:41.807Z,11.30
2019-05-22T20:47:10.674Z,11.30
2019-05-22T20:49:41.392Z,11.30
2019-05-22T20:52:10.715Z,11.20
2019-05-22T20:54:38.910Z,11.20
2019-05-22T20:57:08.180Z,11.20
2019-05-22T20:59:37.848Z,11.30
2019-05-22T21:02:05.819Z,11.30
2019-05-22T21:04:34.456Z,11.30
2019-05-22T21:07:06.605Z,11.10
2019-05-22T21:09:34.722Z,11.10
2019-05-22T21:12:03.138Z,11.10
2019-05-22T21:14:30.869Z,11.00
2019-05-22T21:16:58.371Z,11.00
2019-05-22T21:19:27.979Z,11.00
2019-05-22T21:21:57.261Z,11.00
2019-05-22T21:24:25.778Z,10.90
2019-05-22T21:26:53.542Z,10.90
2019-05-22T21:29:21.490Z,11.00
2019-05-22T21:31:49.859Z,11.00
2019-05-22T21:34:17.416Z,10.90
2019-05-22T21:36:44.875Z,10.90
2019-05-22T21:39:13.164Z,10.90
2019-05-22T21:41:40.586Z,10.90
2019-05-22T21:44:08.141Z,10.90
2019-05-22T21:46:36.467Z,10.90
2019-05-22T21:49:06.161Z,10.90
2019-05-22T21:51:33.865Z,10.90
2019-05-22T21:54:01.243Z,10.80
2019-05-22T21:56:29.413Z,10.80
2019-05-22T21:58:57.388Z,10.70
2019-05-22T22:01:30.293Z,10.80
2019-05-22T22:04:03.209Z,10.80
2019-05-22T22:06:33.352Z,10.80
2019-05-22T22:09:00.779Z,10.80
2019-05-22T22:11:28.726Z,10.80
2019-05-22T22:13:56.408Z,10.80
2019-05-22T22:16:24.194Z,10.80
2019-05-22T22:18:52.762Z,10.80
2019-05-22T22:21:20.904Z,10.80
2019-05-22T22:23:48.294Z,10.70
2019-05-22T22:26:25.478Z,10.70
2019-05-22T22:28:46.104Z,10.70
2019-05-22T22:31:17.176Z,10.70
2019-05-22T22:33:49.600Z,10.70
2019-05-22T22:36:17.879Z,10.70
2019-05-22T22:38:45.322Z,10.70
2019-05-22T22:41:13.377Z,10.60
2019-05-22T22:43:43.065Z,10.60
2019-05-22T22:46:20.492Z,10.60
2019-05-22T22:48:50.979Z,10.50
2019-05-22T22:51:20.285Z,10.50
2019-05-22T22:53:48.553Z,10.40
2019-05-22T22:56:16.841Z,10.40
2019-05-22T22:58:45.123Z,10.30
2019-05-22T23:01:20.656Z,10.30
2019-05-22T23:03:49.631Z,10.20
2019-05-22T23:06:17.972Z,10.20
2019-05-22T23:08:46.617Z,10.20
2019-05-22T23:11:16.464Z,10.10
2019-05-22T23:13:44.449Z,10.10
2019-05-22T23:16:11.784Z,10.10
2019-05-22T23:19:27.508Z,10.10
2019-05-22T23:21:53.891Z,10.10
2019-05-22T23:24:23.700Z,10.10
2019-05-22T23:26:51.036Z,10.20
2019-05-22T23:29:19.004Z,10.20
2019-05-22T23:31:47.986Z,10.20
2019-05-22T23:34:16.413Z,10.30
2019-05-22T23:36:44.652Z,10.30
2019-05-22T23:39:14.666Z,10.30
2019-05-22T23:41:42.556Z,10.30
2019-05-22T23:44:11.756Z,10.30
2019-05-22T23:46:40.795Z,10.30
2019-05-22T23:49:09.443Z,10.30
2019-05-22T23:51:37.747Z,10.30
2019-05-22T23:54:05.607Z,10.30
2019-05-22T23:56:35.894Z,10.30
2019-05-22T23:59:03.501Z,10.30
